createdAt,value
2022-08-17T00:00:42.926Z,99692.50
2022-08-17T00:03:10.448Z,99685.06
2022-08-17T00:05:48.775Z,99686.16
2022-08-17T00:08:23.927Z,99693.16
2022-08-17T00:10:53.139Z,99681.44
2022-08-17T00:13:27.506Z,99687.84
2022-08-17T00:16:03.960Z,99685.66
2022-08-17T00:19:06.891Z,99687.78
2022-08-17T00:21:23.751Z,99680.78
2022-08-17T00:23:54.340Z,99691.50
2022-08-17T00:26:43.742Z,99682.19
2022-08-17T00:29:14.905Z,99673.53
2022-08-17T00:31:48.750Z,99680.78
2022-08-17T00:34:16.879Z,99666.00
2022-08-17T00:36:44.373Z,99673.78
2022-08-17T00:39:11.945Z,99669.69
2022-08-17T00:41:42.286Z,99662.34
2022-08-17T00:44:12.116Z,99669.53
2022-08-17T00:46:43.710Z,99666.34
2022-08-17T00:49:14.062Z,99664.69
2022-08-17T00:51:56.827Z,99676.56
2022-08-17T00:54:33.513Z,99670.34
2022-08-17T00:57:35.082Z,99673.81
2022-08-17T01:00:21.397Z,99673.91
2022-08-17T01:02:49.654Z,99673.75
2022-08-17T01:05:23.806Z,99674.97
2022-08-17T01:07:53.822Z,99672.66
2022-08-17T01:10:59.918Z,99671.13
2022-08-17T01:13:27.764Z,99685.88
2022-08-17T01:16:05.995Z,99681.72
2022-08-17T01:18:34.508Z,99681.22
2022-08-17T01:21:10.962Z,99689.78
2022-08-17T01:23:38.503Z,99688.00
2022-08-17T01:26:06.618Z,99684.91
2022-08-17T01:28:54.328Z,99687.66
2022-08-17T01:31:30.293Z,99679.69
2022-08-17T01:34:02.732Z,99688.34
2022-08-17T01:36:30.903Z,99684.41
2022-08-17T01:38:58.521Z,99688.34
2022-08-17T01:41:27.254Z,99675.44
2022-08-17T01:44:01.938Z,99680.59
2022-08-17T01:46:36.296Z,99670.84
2022-08-17T01:49:11.196Z,99670.53
2022-08-17T01:51:39.353Z,99672.03
2022-08-17T01:54:13.489Z,99670.53
2022-08-17T01:56:47.144Z,99663.25
2022-08-17T01:59:18.316Z,99669.00
2022-08-17T02:01:47.003Z,99657.28
2022-08-17T02:04:15.063Z,99657.13
2022-08-17T02:06:53.618Z,99660.19
2022-08-17T02:09:25.357Z,99663.09
2022-08-17T02:11:56.356Z,99667.25
2022-08-17T02:14:25.861Z,99656.59
2022-08-17T02:16:53.857Z,99663.50
2022-08-17T02:19:22.475Z,99658.75
2022-08-17T02:21:52.766Z,99657.69
2022-08-17T02:24:58.307Z,99665.59
2022-08-17T02:27:27.659Z,99663.63
2022-08-17T02:29:55.156Z,99660.44
2022-08-17T02:32:27.609Z,99667.28
2022-08-17T02:35:01.675Z,99663.34
2022-08-17T02:37:30.397Z,99661.81
2022-08-17T02:39:59.925Z,99664.50
2022-08-17T02:42:36.538Z,99666.06
2022-08-17T02:45:11.223Z,99667.84
2022-08-17T02:47:38.866Z,99666.25
2022-08-17T02:50:09.895Z,99664.53
2022-08-17T02:52:43.635Z,99660.72
2022-08-17T02:55:34.305Z,99671.41
2022-08-17T02:58:03.653Z,99660.59
2022-08-17T03:00:41.106Z,99674.59
2022-08-17T03:03:10.962Z,99670.91
2022-08-17T03:05:39.353Z,99672.88
2022-08-17T03:08:11.723Z,99677.72
2022-08-17T03:10:42.882Z,99680.25
2022-08-17T03:13:12.913Z,99680.59
2022-08-17T03:15:43.966Z,99686.25
2022-08-17T03:18:25.362Z,99682.66
2022-08-17T03:20:57.215Z,99680.59
2022-08-17T03:23:26.070Z,99684.97
2022-08-17T03:25:56.007Z,99682.66
2022-08-17T03:28:25.132Z,99686.06
2022-08-17T03:30:53.001Z,99692.06
2022-08-17T03:33:20.841Z,99687.44
2022-08-17T03:35:48.746Z,99692.94
2022-08-17T03:38:17.235Z,99698.31
2022-08-17T03:40:56.971Z,99701.50
2022-08-17T03:43:32.827Z,99698.41
2022-08-17T03:46:34.778Z,99705.44
2022-08-17T03:49:25.341Z,99705.44
2022-08-17T03:52:13.181Z,99719.13
2022-08-17T03:55:01.160Z,99713.34
2022-08-17T03:57:30.203Z,99713.34
2022-08-17T03:59:58.102Z,99713.25
2022-08-17T04:02:30.329Z,99724.66
2022-08-17T04:04:58.731Z,99707.72
2022-08-17T04:07:30.789Z,99707.97
2022-08-17T04:09:59.513Z,99708.53
2022-08-17T04:12:31.700Z,99707.41
2022-08-17T04:14:59.822Z,99712.13
2022-08-17T04:17:29.704Z,99713.03
2022-08-17T04:19:58.142Z,99717.63
2022-08-17T04:22:32.622Z,99714.00
2022-08-17T04:25:18.625Z,99720.69
2022-08-17T04:27:46.408Z,99723.72
2022-08-17T04:30:15.015Z,99729.22
2022-08-17T04:33:07.332Z,99727.56
2022-08-17T04:35:45.804Z,99742.03
2022-08-17T04:38:17.992Z,99735.34
2022-08-17T04:41:05.558Z,99740.47
2022-08-17T04:43:35.132Z,99738.53
2022-08-17T04:46:11.340Z,99743.00
2022-08-17T04:48:49.095Z,99746.69
2022-08-17T04:51:24.314Z,99755.00
2022-08-17T04:53:59.564Z,99749.41
2022-08-17T04:56:46.653Z,99751.03
2022-08-17T04:59:18.910Z,99754.88
2022-08-17T05:01:55.623Z,99744.00
2022-08-17T05:04:34.489Z,99762.31
2022-08-17T05:07:04.649Z,99752.78
2022-08-17T05:09:32.647Z,99755.28
2022-08-17T05:12:04.058Z,99751.16
2022-08-17T05:14:32.736Z,99751.94
2022-08-17T05:17:06.997Z,99756.16
2022-08-17T05:19:37.397Z,99752.84
2022-08-17T05:22:06.220Z,99752.59
2022-08-17T05:24:42.716Z,99747.09
2022-08-17T05:27:18.848Z,99753.56
2022-08-17T05:29:46.692Z,99752.69
2022-08-17T05:32:37.920Z,99752.50
2022-08-17T05:35:02.999Z,99745.16
2022-08-17T05:37:30.461Z,99758.00
2022-08-17T05:39:58.012Z,99758.63
2022-08-17T05:42:25.743Z,99772.16
2022-08-17T05:44:53.193Z,99768.31
2022-08-17T05:47:23.010Z,99767.41
2022-08-17T05:49:50.889Z,99774.94
2022-08-17T05:52:32.595Z,99778.78
2022-08-17T05:55:18.147Z,99786.75
2022-08-17T05:58:16.176Z,99784.97
2022-08-17T06:00:55.948Z,99773.75
2022-08-17T06:03:35.112Z,99781.72
2022-08-17T06:06:21.182Z,99777.19
2022-08-17T06:09:33.620Z,99783.13
2022-08-17T06:12:20.091Z,99790.00
2022-08-17T06:15:12.778Z,99784.59
2022-08-17T06:17:42.380Z,99783.06
2022-08-17T06:20:15.745Z,99787.59
2022-08-17T06:22:52.164Z,99783.63
2022-08-17T06:25:37.951Z,99765.66
2022-08-17T06:28:14.818Z,99774.66
2022-08-17T06:31:00.574Z,99775.25
2022-08-17T06:33:37.509Z,99775.47
2022-08-17T06:36:48.319Z,99765.09
2022-08-17T06:40:13.436Z,99765.56
2022-08-17T06:43:05.792Z,99766.66
2022-08-17T06:46:08.303Z,99772.63
2022-08-17T06:48:56.766Z,99782.41
2022-08-17T06:51:40.424Z,99780.56
2022-08-17T06:54:14.888Z,99781.06
2022-08-17T06:56:55.444Z,99781.97
2022-08-17T06:59:36.271Z,99782.16
2022-08-17T07:03:02.491Z,99782.78
2022-08-17T07:05:52.804Z,99793.31
2022-08-17T07:08:35.180Z,99781.66
2022-08-17T07:11:22.151Z,99783.22
2022-08-17T07:14:37.797Z,99798.91
2022-08-17T07:17:18.367Z,99795.69
2022-08-17T07:19:50.234Z,99788.41
2022-08-17T07:22:54.803Z,99799.88
2022-08-17T07:25:24.241Z,99794.13
2022-08-17T07:27:55.990Z,99781.16
2022-08-17T07:30:46.930Z,99783.84
2022-08-17T07:33:30.532Z,99780.34
2022-08-17T07:35:59.381Z,99795.63
2022-08-17T07:38:32.946Z,99790.47
2022-08-17T07:41:10.025Z,99801.16
2022-08-17T07:43:40.862Z,99801.47
2022-08-17T07:46:40.251Z,99794.94
2022-08-17T07:49:11.210Z,99797.53
2022-08-17T07:51:45.722Z,99801.81
2022-08-17T07:54:17.307Z,99802.72
2022-08-17T07:56:57.596Z,99799.06
2022-08-17T07:59:36.865Z,99795.84
2022-08-17T08:02:34.312Z,99787.41
2022-08-17T08:05:44.273Z,99801.81
2022-08-17T08:08:25.663Z,99804.22
2022-08-17T08:11:28.235Z,99799.03
2022-08-17T08:13:57.368Z,99798.72
2022-08-17T08:16:29.767Z,99795.97
2022-08-17T08:19:01.404Z,99798.56
2022-08-17T08:21:33.522Z,99796.88
2022-08-17T08:24:56.838Z,99795.78
2022-08-17T08:27:31.509Z,99800.22
2022-08-17T08:30:15.138Z,99783.38
2022-08-17T08:33:39.816Z,99790.25
2022-08-17T08:37:17.151Z,99787.56
2022-08-17T08:40:30.050Z,99778.38
2022-08-17T08:43:36.261Z,99780.69
2022-08-17T08:46:27.839Z,99790.59
2022-08-17T08:49:45.107Z,99783.22
2022-08-17T08:52:42.687Z,99783.50
2022-08-17T08:55:42.975Z,99789.25
2022-08-17T08:58:32.198Z,99781.22
2022-08-17T09:01:40.828Z,99783.97
2022-08-17T09:05:14.173Z,99789.91
2022-08-17T09:08:12.696Z,99786.31
2022-08-17T09:32:59.928Z,99792.44
2022-08-17T09:35:37.437Z,99783.03
2022-08-17T09:39:14.984Z,99785.53
2022-08-17T09:42:24.255Z,99782.94
2022-08-17T09:45:52.260Z,99778.88
2022-08-17T09:48:27.657Z,99777.53
2022-08-17T09:51:13.646Z,99779.63
2022-08-17T09:53:44.547Z,99783.81
2022-08-17T09:56:31.651Z,99779.34
2022-08-17T09:59:38.212Z,99777.72
2022-08-17T10:02:54.532Z,99771.88
2022-08-17T10:05:46.708Z,99777.69
2022-08-17T10:08:34.820Z,99776.00
2022-08-17T10:11:54.282Z,99772.88
2022-08-17T10:14:43.810Z,99766.00
2022-08-17T10:17:42.390Z,99767.13
2022-08-17T10:20:14.148Z,99768.44
2022-08-17T10:23:13.811Z,99773.47
2022-08-17T10:26:04.960Z,99768.78
2022-08-17T10:29:10.422Z,99772.97
2022-08-17T10:31:53.312Z,99776.00
2022-08-17T10:34:29.910Z,99768.94
2022-08-17T10:37:42.332Z,99761.22
2022-08-17T10:40:47.582Z,99773.34
2022-08-17T10:44:36.626Z,99769.69
2022-08-17T10:47:09.023Z,99773.00
2022-08-17T10:49:47.836Z,99768.22
2022-08-17T10:52:27.856Z,99772.78
2022-08-17T10:54:58.733Z,99763.31
2022-08-17T10:57:40.110Z,99764.63
2022-08-17T11:00:35.221Z,99752.63
2022-08-17T11:03:15.001Z,99757.00
2022-08-17T11:06:12.772Z,99761.13
2022-08-17T11:09:24.809Z,99744.81
2022-08-17T11:12:26.719Z,99752.75
2022-08-17T11:15:45.968Z,99755.59
2022-08-17T11:18:53.556Z,99764.00
2022-08-17T11:21:32.206Z,99746.41
2022-08-17T11:24:18.578Z,99750.22
2022-08-17T11:27:24.866Z,99750.06
2022-08-17T11:30:07.393Z,99751.13
2022-08-17T11:32:37.499Z,99756.44
2022-08-17T11:35:23.378Z,99750.66
2022-08-17T11:38:34.967Z,99741.88
2022-08-17T11:41:20.327Z,99740.44
2022-08-17T11:44:22.023Z,99754.88
2022-08-17T11:48:16.138Z,99742.06
2022-08-17T11:51:24.252Z,99737.06
2022-08-17T11:54:14.755Z,99737.34
2022-08-17T11:56:51.364Z,99744.47
2022-08-17T11:59:34.517Z,99746.75
2022-08-17T12:02:27.608Z,99732.88
2022-08-17T12:05:16.909Z,99728.59
2022-08-17T12:07:56.532Z,99738.19
2022-08-17T12:10:32.212Z,99733.38
2022-08-17T12:13:15.748Z,99731.38
2022-08-17T12:15:50.172Z,99735.94
2022-08-17T12:18:41.810Z,99722.56
2022-08-17T12:21:46.330Z,99725.63
2022-08-17T12:24:41.252Z,99727.38
2022-08-17T12:27:13.243Z,99727.13
2022-08-17T12:29:45.178Z,99721.53
2022-08-17T12:32:20.537Z,99721.28
2022-08-17T12:34:51.140Z,99703.84
2022-08-17T12:37:24.965Z,99706.09
2022-08-17T12:40:27.080Z,99706.06
2022-08-17T12:43:02.435Z,99701.47
2022-08-17T12:45:41.849Z,99705.47
2022-08-17T12:48:13.721Z,99705.19
2022-08-17T12:50:45.818Z,99707.97
2022-08-17T12:53:23.757Z,99690.78
2022-08-17T12:55:52.199Z,99694.34
2022-08-17T12:58:25.050Z,99693.34
2022-08-17T13:01:01.045Z,99695.34
2022-08-17T13:03:36.319Z,99688.00
2022-08-17T13:06:09.601Z,99685.72
2022-08-17T13:08:42.847Z,99691.28
2022-08-17T13:11:22.489Z,99687.78
2022-08-17T13:13:55.074Z,99687.06
2022-08-17T13:16:27.576Z,99690.34
2022-08-17T13:19:13.114Z,99688.63
2022-08-17T13:21:49.083Z,99689.13
2022-08-17T13:24:31.048Z,99682.59
2022-08-17T13:27:13.460Z,99677.06
2022-08-17T13:29:53.712Z,99682.88
2022-08-17T13:32:33.550Z,99683.63
2022-08-17T13:35:29.766Z,99684.41
2022-08-17T13:38:30.651Z,99683.91
2022-08-17T13:40:58.294Z,99669.25
2022-08-17T13:43:50.623Z,99674.81
2022-08-17T13:46:28.590Z,99669.50
2022-08-17T13:49:09.754Z,99672.19
2022-08-17T13:51:44.926Z,99669.53
2022-08-17T13:54:36.945Z,99674.50
2022-08-17T13:57:25.198Z,99662.81
2022-08-17T14:00:12.623Z,99664.56
2022-08-17T14:02:40.191Z,99666.25
2022-08-17T14:05:08.222Z,99660.09
2022-08-17T14:07:40.325Z,99665.16
2022-08-17T14:10:18.398Z,99663.63
2022-08-17T14:12:46.404Z,99659.97
2022-08-17T14:15:18.143Z,99658.38
2022-08-17T14:17:46.216Z,99653.16
2022-08-17T14:20:16.090Z,99655.06
2022-08-17T14:22:50.634Z,99661.00
2022-08-17T14:25:27.687Z,99657.03
2022-08-17T14:27:55.947Z,99651.19
2022-08-17T14:30:29.024Z,99652.13
2022-08-17T14:32:58.797Z,99655.56
2022-08-17T14:35:28.245Z,99657.81
2022-08-17T14:37:56.400Z,99652.75
2022-08-17T14:40:25.534Z,99654.72
2022-08-17T14:42:56.530Z,99654.72
2022-08-17T14:45:29.871Z,99650.41
2022-08-17T14:48:04.544Z,99650.97
2022-08-17T14:50:35.813Z,99650.59
2022-08-17T14:53:06.566Z,99652.53
2022-08-17T14:55:34.642Z,99644.25
2022-08-17T14:58:04.071Z,99644.34
2022-08-17T15:00:33.190Z,99642.66
2022-08-17T15:03:01.551Z,99642.66
2022-08-17T15:05:35.437Z,99643.09
2022-08-17T15:08:05.615Z,99640.00
2022-08-17T15:10:33.590Z,99640.34
2022-08-17T15:13:01.680Z,99645.09
2022-08-17T15:15:29.949Z,99649.28
2022-08-17T15:17:58.248Z,99660.56
2022-08-17T15:20:29.928Z,99655.75
2022-08-17T15:22:59.350Z,99644.03
2022-08-17T15:25:32.220Z,99651.31
2022-08-17T15:28:01.256Z,99647.41
2022-08-17T15:30:30.152Z,99646.06
2022-08-17T15:33:02.786Z,99649.66
2022-08-17T15:35:33.985Z,99651.00
2022-08-17T15:38:11.764Z,99631.19
2022-08-17T15:40:46.420Z,99644.38
2022-08-17T15:43:27.718Z,99644.38
2022-08-17T15:46:03.080Z,99652.16
2022-08-17T15:48:43.394Z,99654.19
2022-08-17T15:51:24.989Z,99653.94
2022-08-17T15:54:19.211Z,99651.22
2022-08-17T15:56:50.831Z,99643.22
2022-08-17T15:59:19.460Z,99647.38
2022-08-17T16:03:12.973Z,99639.22
2022-08-17T16:04:34.955Z,99647.44
2022-08-17T16:07:04.532Z,99643.34
2022-08-17T16:09:32.038Z,99637.44
2022-08-17T16:12:10.392Z,99642.09
2022-08-17T16:14:38.117Z,99644.44
2022-08-17T16:17:39.830Z,99647.56
2022-08-17T16:19:53.840Z,99633.66
2022-08-17T16:22:41.149Z,99641.53
2022-08-17T16:25:16.816Z,99649.69
2022-08-17T16:27:46.700Z,99640.50
2022-08-17T16:30:17.523Z,99642.09
2022-08-17T16:32:47.849Z,99644.88
2022-08-17T16:35:18.286Z,99642.25
2022-08-17T16:37:46.854Z,99651.25
2022-08-17T16:40:18.159Z,99640.19
2022-08-17T16:42:48.572Z,99647.09
2022-08-17T16:45:29.284Z,99653.41
2022-08-17T16:47:59.207Z,99658.72
2022-08-17T16:50:27.399Z,99654.16
2022-08-17T16:53:06.537Z,99649.34
2022-08-17T16:55:38.022Z,99663.00
2022-08-17T16:58:08.803Z,99663.28
2022-08-17T17:00:37.820Z,99661.22
2022-08-17T17:03:20.560Z,99654.91
2022-08-17T17:06:14.197Z,99656.94
2022-08-17T17:09:06.975Z,99664.75
2022-08-17T17:11:46.414Z,99665.25
2022-08-17T17:14:46.249Z,99659.72
2022-08-17T17:17:37.201Z,99657.69
2022-08-17T17:20:13.776Z,99662.47
2022-08-17T17:22:59.144Z,99666.47
2022-08-17T17:25:59.935Z,99656.13
2022-08-17T17:29:00.837Z,99666.66
2022-08-17T17:31:38.348Z,99666.13
2022-08-17T17:34:10.930Z,99668.06
2022-08-17T17:36:56.880Z,99667.00
2022-08-17T17:39:55.823Z,99665.16
2022-08-17T17:42:31.501Z,99664.34
2022-08-17T17:45:20.742Z,99670.06
2022-08-17T17:47:48.601Z,99669.50
2022-08-17T17:50:21.552Z,99666.25
2022-08-17T17:53:17.208Z,99668.19
2022-08-17T17:56:43.588Z,99676.19
2022-08-17T17:59:36.684Z,99677.94
2022-08-17T18:02:57.980Z,99686.09
2022-08-17T18:05:55.516Z,99694.56
2022-08-17T18:08:49.265Z,99688.44
2022-08-17T18:11:25.152Z,99693.66
2022-08-17T18:14:33.149Z,99699.34
2022-08-17T18:17:02.251Z,99691.97
2022-08-17T18:19:31.322Z,99707.75
2022-08-17T18:22:17.138Z,99704.44
2022-08-17T18:24:54.074Z,99707.69
2022-08-17T18:27:51.301Z,99717.16
2022-08-17T18:30:19.476Z,99714.91
2022-08-17T18:32:47.538Z,99716.41
2022-08-17T18:35:14.971Z,99718.00
2022-08-17T18:37:58.597Z,99718.75
2022-08-17T18:40:32.966Z,99719.56
2022-08-17T18:43:13.349Z,99714.75
2022-08-17T18:45:54.494Z,99722.78
2022-08-17T18:48:49.660Z,99723.94
2022-08-17T18:51:42.117Z,99722.59
2022-08-17T18:54:25.482Z,99730.63
2022-08-17T18:56:56.928Z,99731.16
2022-08-17T18:59:48.261Z,99730.22
2022-08-17T19:02:38.676Z,99728.72
2022-08-17T19:05:39.368Z,99731.81
2022-08-17T19:08:29.751Z,99733.03
2022-08-17T19:11:28.767Z,99730.91
2022-08-17T19:14:11.976Z,99738.34
2022-08-17T19:16:57.893Z,99735.06
2022-08-17T19:20:02.360Z,99733.81
2022-08-17T19:22:50.203Z,99737.97
2022-08-17T19:25:29.334Z,99739.94
2022-08-17T19:28:34.915Z,99749.28
2022-08-17T19:31:16.693Z,99745.94
2022-08-17T19:33:47.939Z,99747.94
2022-08-17T19:36:21.619Z,99749.38
2022-08-17T19:39:38.047Z,99742.44
2022-08-17T19:43:06.591Z,99745.66
2022-08-17T19:46:01.398Z,99741.09
2022-08-17T19:49:34.476Z,99752.53
2022-08-17T19:58:51.428Z,99743.31
2022-08-17T20:01:54.793Z,99739.44
2022-08-17T20:04:31.787Z,99745.56
2022-08-17T20:07:11.239Z,99747.75
2022-08-17T20:09:46.551Z,99749.66
2022-08-17T20:12:25.963Z,99750.34
2022-08-17T20:15:04.457Z,99758.34
2022-08-17T20:17:39.325Z,99751.75
2022-08-17T20:20:39.525Z,99758.34
2022-08-17T20:23:55.967Z,99756.91
2022-08-17T20:26:55.440Z,99752.06
2022-08-17T20:29:55.355Z,99755.69
2022-08-17T20:32:31.194Z,99756.59
2022-08-17T20:35:39.568Z,99747.69
2022-08-17T20:38:46.166Z,99751.59
2022-08-17T20:41:20.827Z,99757.19
2022-08-17T20:44:04.034Z,99761.97
2022-08-17T20:46:40.386Z,99753.97
2022-08-17T20:49:11.247Z,99758.88
2022-08-17T20:52:13.551Z,99762.13
2022-08-17T20:54:54.696Z,99755.53
2022-08-17T20:57:37.531Z,99768.59
2022-08-17T21:00:28.134Z,99759.38
2022-08-17T21:03:23.428Z,99753.84
2022-08-17T21:06:15.406Z,99752.78
2022-08-17T21:09:27.709Z,99748.91
2022-08-17T21:12:04.044Z,99745.88
2022-08-17T21:14:56.294Z,99747.69
2022-08-17T21:18:08.310Z,99759.47
2022-08-17T21:20:48.897Z,99749.56
2022-08-17T21:23:57.617Z,99744.03
2022-08-17T21:26:32.443Z,99744.31
2022-08-17T21:29:30.877Z,99753.56
2022-08-17T21:32:09.632Z,99745.16
2022-08-17T21:34:44.793Z,99741.38
2022-08-17T21:37:29.489Z,99743.66
2022-08-17T21:40:27.340Z,99749.38
2022-08-17T21:43:08.305Z,99741.47
2022-08-17T21:45:43.233Z,99741.47
2022-08-17T21:48:20.119Z,99737.28
2022-08-17T21:51:10.581Z,99741.72
2022-08-17T21:53:50.250Z,99733.75
2022-08-17T21:56:40.758Z,99739.09
2022-08-17T21:59:35.641Z,99742.88
2022-08-17T22:02:32.388Z,99739.84
2022-08-17T22:05:03.221Z,99739.84
2022-08-17T22:07:50.886Z,99737.38
2022-08-17T22:10:43.685Z,99736.63
2022-08-17T22:13:30.153Z,99729.41
2022-08-17T22:16:28.367Z,99733.94
2022-08-17T22:18:59.241Z,99729.94
2022-08-17T22:21:27.375Z,99733.00
2022-08-17T22:24:18.028Z,99741.88
2022-08-17T22:27:07.634Z,99735.47
2022-08-17T22:29:57.358Z,99747.66
2022-08-17T22:32:41.516Z,99747.63
2022-08-17T22:35:32.852Z,99750.50
2022-08-17T22:38:18.632Z,99748.13
2022-08-17T22:40:52.326Z,99751.22
2022-08-17T22:43:28.677Z,99741.16
2022-08-17T22:46:00.706Z,99748.06
2022-08-17T22:48:31.213Z,99751.00
2022-08-17T22:51:12.588Z,99758.50
2022-08-17T22:54:36.431Z,99760.56
2022-08-17T22:57:23.836Z,99765.38
2022-08-17T22:59:55.673Z,99764.81
2022-08-17T23:02:26.987Z,99772.00
2022-08-17T23:05:16.854Z,99760.97
2022-08-17T23:07:47.257Z,99767.44
2022-08-17T23:10:15.277Z,99766.56
2022-08-17T23:12:42.891Z,99772.53
2022-08-17T23:15:18.996Z,99767.22
2022-08-17T23:17:47.776Z,99783.47
2022-08-17T23:20:17.606Z,99770.59
2022-08-17T23:22:52.577Z,99771.53
2022-08-17T23:25:33.650Z,99773.41
2022-08-17T23:28:03.701Z,99781.38
2022-08-17T23:30:36.019Z,99773.13
2022-08-17T23:33:30.363Z,99769.03
2022-08-17T23:35:58.895Z,99773.78
2022-08-17T23:38:27.422Z,99768.56
2022-08-17T23:40:55.992Z,99771.59
2022-08-17T23:43:25.567Z,99772.25
2022-08-17T23:45:58.569Z,99767.97
2022-08-17T23:48:34.921Z,99775.28
2022-08-17T23:51:14.139Z,99774.06
2022-08-17T23:53:50.130Z,99781.25
2022-08-17T23:56:24.323Z,99771.94
2022-08-17T23:58:55.585Z,99769.50
